Time;durP1;ratioP1;P1;durP2;ratioP2;P2;SDS_P1;SDS_P2;PMS_P1;PMS_P2;Temp;Humidity;BMP_temperature;BMP_pressure;BME280_temperature;BME280_humidity;BME280_pressure;Samples;Min_cycle;Max_cycle;Signal;HPM_P1;HPM_P2
2021/09/07 00:01:40;;;;;;;31.02;16.33;;;;;;;;;;5013230;28;20499;-63
2021/09/07 00:04:05;;;;;;;35.63;16.95;;;;;;;;;;5012908;28;20014;-63
2021/09/07 00:06:31;;;;;;;29.45;16.35;;;;;;;;;;5013305;28;20076;-63
2021/09/07 00:08:56;;;;;;;31.52;17.48;;;;;;;;;;5013248;28;20073;-63
2021/09/07 00:11:21;;;;;;;35.95;18.05;;;;;;;;;;5013236;28;20038;-63
2021/09/07 00:13:47;;;;;;;33.70;18.52;;;;;;;;;;5013330;28;20442;-63
2021/09/07 00:16:12;;;;;;;30.80;17.27;;;;;;;;;;5023133;28;20064;-63
2021/09/07 00:18:37;;;;;;;29.35;18.05;;;;;;;;;;5033245;28;20091;-63
2021/09/07 00:21:02;;;;;;;37.35;18.85;;;;;;;;;;5024258;28;20488;-63
2021/09/07 00:23:27;;;;;;;29.58;17.67;;;;;;;;;;5013350;28;20022;-63
2021/09/07 00:25:53;;;;;;;31.40;18.10;;;;;;;;;;5012964;28;20030;-63
2021/09/07 00:28:18;;;;;;;34.83;19.42;;;;;;;;;;5013255;28;20030;-63
2021/09/07 00:30:43;;;;;;;32.38;18.15;;;;;;;;;;5018516;28;20040;-63
2021/09/07 00:33:09;;;;;;;33.00;17.92;;;;;;;;;;5031525;28;20117;-63
2021/09/07 00:35:34;;;;;;;33.33;18.02;;;;;;;;;;5026634;28;20064;-63
2021/09/07 00:37:59;;;;;;;32.35;17.80;;;;;;;;;;5013164;28;20119;-63
2021/09/07 00:40:25;;;;;;;30.45;17.13;;;;;;;;;;5012713;28;20025;-63
2021/09/07 00:42:50;;;;;;;29.42;17.58;;;;;;;;;;5012382;28;20056;-63
2021/09/07 00:45:15;;;;;;;37.38;19.80;;;;;;;;;;5012702;28;20110;-63
2021/09/07 00:47:41;;;;;;;37.28;20.75;;;;;;;;;;5013207;28;20029;-63
2021/09/07 00:50:06;;;;;;;37.45;20.40;;;;;;;;;;5012476;28;20100;-63
2021/09/07 00:52:32;;;;;;;33.65;18.52;;;;;;;;;;5012794;28;20018;-63
2021/09/07 00:54:57;;;;;;;33.75;19.05;;;;;;;;;;5011898;28;20022;-63
2021/09/07 00:57:25;;;;;;;34.80;19.75;;;;;;;;;;5011486;28;20030;-63
2021/09/07 00:59:51;;;;;;;36.17;18.95;;;;;;;;;;5011600;28;20330;-63
2021/09/07 01:02:16;;;;;;;32.03;18.23;;;;;;;;;;5012569;28;20026;-63
2021/09/07 01:04:41;;;;;;;36.72;19.08;;;;;;;;;;5011595;28;20029;-63
2021/09/07 01:07:06;;;;;;;35.10;19.75;;;;;;;;;;5029637;28;20029;-63
2021/09/07 01:09:32;;;;;;;40.15;19.80;;;;;;;;;;5032351;28;20411;-63
2021/09/07 01:11:57;;;;;;;35.67;19.90;;;;;;;;;;5016321;28;20106;-63
2021/09/07 01:14:32;;;;;;;34.17;18.15;;;;;;;;;;5010993;28;20389;-63
2021/09/07 01:16:57;;;;;;;33.15;18.35;;;;;;;;;;5012247;28;20033;-64
2021/09/07 01:19:23;;;;;;;34.28;18.25;;;;;;;;;;5011520;28;20022;-63
2021/09/07 01:21:48;;;;;;;34.55;19.75;;;;;;;;;;5012387;28;20153;-63
2021/09/07 01:24:13;;;;;;;37.30;19.92;;;;;;;;;;5012763;28;20018;-63
2021/09/07 01:26:38;;;;;;;37.33;20.75;;;;;;;;;;5012309;28;20034;-63
2021/09/07 01:29:04;;;;;;;38.95;20.33;;;;;;;;;;5012865;28;20041;-63
2021/09/07 01:31:30;;;;;;;49.42;24.00;;;;;;;;;;5012557;28;20121;-64
2021/09/07 01:33:55;;;;;;;40.22;21.05;;;;;;;;;;5012791;28;20065;-63
2021/09/07 01:36:22;;;;;;;41.15;22.08;;;;;;;;;;5012225;28;20039;-63
2021/09/07 01:38:47;;;;;;;37.72;20.67;;;;;;;;;;5012501;28;20065;-63
2021/09/07 01:41:12;;;;;;;44.03;22.65;;;;;;;;;;5012318;28;20054;-63
2021/09/07 01:43:38;;;;;;;49.80;22.08;;;;;;;;;;5012673;28;20101;-63
2021/09/07 01:46:03;;;;;;;40.88;22.17;;;;;;;;;;5012145;28;20392;-63
2021/09/07 01:48:28;;;;;;;44.53;22.00;;;;;;;;;;5012613;28;20457;-63
2021/09/07 01:50:53;;;;;;;43.13;22.92;;;;;;;;;;5011988;28;20053;-63
2021/09/07 01:53:19;;;;;;;43.72;22.48;;;;;;;;;;5012515;28;20127;-63
2021/09/07 01:55:44;;;;;;;39.33;20.15;;;;;;;;;;5015032;28;20034;-63
2021/09/07 01:58:09;;;;;;;36.55;19.98;;;;;;;;;;5016009;28;20022;-63
2021/09/07 02:00:35;;;;;;;44.78;23.27;;;;;;;;;;5014231;28;20109;-63
2021/09/07 02:03:00;;;;;;;37.70;22.20;;;;;;;;;;5015913;28;20028;-63
2021/09/07 02:05:25;;;;;;;45.92;22.42;;;;;;;;;;5015466;28;20026;-63
2021/09/07 02:07:50;;;;;;;42.55;21.92;;;;;;;;;;5015909;28;20022;-63
2021/09/07 02:10:16;;;;;;;44.47;21.83;;;;;;;;;;5015116;28;20054;-63
2021/09/07 02:12:41;;;;;;;37.80;20.10;;;;;;;;;;5014435;28;20033;-63
2021/09/07 02:15:06;;;;;;;39.80;21.77;;;;;;;;;;5015262;28;20018;-63
2021/09/07 02:17:32;;;;;;;43.33;23.17;;;;;;;;;;5014390;28;20097;-63
2021/09/07 02:19:57;;;;;;;48.47;24.63;;;;;;;;;;5015513;28;20432;-63
2021/09/07 02:22:22;;;;;;;43.20;22.67;;;;;;;;;;5013864;28;20030;-63
2021/09/07 02:24:47;;;;;;;47.53;23.77;;;;;;;;;;5015563;28;20026;-63
2021/09/07 02:27:13;;;;;;;41.70;22.95;;;;;;;;;;5014880;28;20030;-63
2021/09/07 02:29:38;;;;;;;39.92;21.48;;;;;;;;;;5015521;28;20104;-63
2021/09/07 02:32:03;;;;;;;41.97;22.35;;;;;;;;;;5014890;28;20030;-63
2021/09/07 02:34:29;;;;;;;42.45;23.10;;;;;;;;;;5015098;28;20083;-63
2021/09/07 02:36:54;;;;;;;45.25;22.55;;;;;;;;;;5013668;28;20539;-63
2021/09/07 02:39:19;;;;;;;42.92;22.13;;;;;;;;;;5015390;28;20022;-63
2021/09/07 02:41:45;;;;;;;44.47;22.02;;;;;;;;;;5014817;28;20033;-63
2021/09/07 02:44:10;;;;;;;47.03;21.08;;;;;;;;;;5015269;28;20026;-63
2021/09/07 02:46:35;;;;;;;35.78;19.83;;;;;;;;;;5014935;28;20037;-63
2021/09/07 02:49:00;;;;;;;35.17;20.38;;;;;;;;;;5015000;28;20024;-63
2021/09/07 02:51:26;;;;;;;37.67;21.05;;;;;;;;;;5014544;28;20103;-63
2021/09/07 02:53:51;;;;;;;40.42;22.20;;;;;;;;;;5014853;28;20029;-63
2021/09/07 02:56:16;;;;;;;42.20;21.88;;;;;;;;;;5014505;28;20035;-63
2021/09/07 02:58:41;;;;;;;42.80;23.05;;;;;;;;;;5015020;28;20017;-63
2021/09/07 03:01:06;;;;;;;37.58;21.25;;;;;;;;;;5014446;28;20032;-64
2021/09/07 03:03:33;;;;;;;32.45;18.98;;;;;;;;;;5014692;28;20464;-63
2021/09/07 03:05:58;;;;;;;32.55;19.75;;;;;;;;;;5013724;28;20120;-63
2021/09/07 03:08:24;;;;;;;36.28;19.92;;;;;;;;;;5014716;28;20129;-63
2021/09/07 03:10:49;;;;;;;39.67;20.15;;;;;;;;;;5014244;28;20041;-63
2021/09/07 03:13:14;;;;;;;38.25;21.60;;;;;;;;;;5014162;28;20018;-63
2021/09/07 03:15:41;;;;;;;40.33;20.15;;;;;;;;;;5013999;28;20472;-63
2021/09/07 03:18:06;;;;;;;33.60;19.40;;;;;;;;;;5014343;28;20075;-63
2021/09/07 03:20:31;;;;;;;38.83;21.27;;;;;;;;;;5014055;28;20026;-63
2021/09/07 03:22:56;;;;;;;37.28;20.75;;;;;;;;;;5014304;28;20373;-63
2021/09/07 03:25:22;;;;;;;39.75;21.27;;;;;;;;;;5012596;28;20041;-63
2021/09/07 03:27:47;;;;;;;36.28;20.58;;;;;;;;;;5014356;28;20392;-63
2021/09/07 03:30:12;;;;;;;41.58;20.90;;;;;;;;;;5013933;28;20318;-63
2021/09/07 03:32:39;;;;;;;37.03;21.23;;;;;;;;;;5014163;28;20038;-63
2021/09/07 03:35:05;;;;;;;36.50;20.75;;;;;;;;;;5014008;28;20028;-63
2021/09/07 03:37:30;;;;;;;36.75;19.95;;;;;;;;;;5014218;28;20018;-63
2021/09/07 03:39:55;;;;;;;34.75;19.75;;;;;;;;;;5014145;28;20101;-63
2021/09/07 03:42:20;;;;;;;36.60;19.95;;;;;;;;;;5013792;28;20480;-63
2021/09/07 03:44:45;;;;;;;43.42;22.02;;;;;;;;;;5014264;28;20232;-63
2021/09/07 03:47:11;;;;;;;38.40;20.52;;;;;;;;;;5013674;28;20026;-63
2021/09/07 03:49:36;;;;;;;39.95;22.13;;;;;;;;;;5013970;28;20100;-63
2021/09/07 03:52:01;;;;;;;41.28;22.17;;;;;;;;;;5013619;28;20111;-63
2021/09/07 03:54:26;;;;;;;45.28;22.63;;;;;;;;;;5013816;28;20113;-63
2021/09/07 03:56:52;;;;;;;37.53;21.50;;;;;;;;;;5013348;28;20034;-64
2021/09/07 03:59:17;;;;;;;39.15;21.20;;;;;;;;;;5013774;28;20469;-64
2021/09/07 04:01:42;;;;;;;40.40;21.35;;;;;;;;;;5012697;28;20381;-64
2021/09/07 04:04:10;;;;;;;39.67;21.60;;;;;;;;;;5013457;28;20033;-64
2021/09/07 04:06:35;;;;;;;38.95;20.90;;;;;;;;;;5013354;28;20038;-64
2021/09/07 04:09:01;;;;;;;44.63;22.30;;;;;;;;;;5013676;28;20041;-63
2021/09/07 04:11:26;;;;;;;42.92;22.25;;;;;;;;;;5013235;28;20092;-64
2021/09/07 04:13:51;;;;;;;48.35;23.35;;;;;;;;;;5013452;28;20113;-63
2021/09/07 04:16:16;;;;;;;46.10;22.67;;;;;;;;;;5013039;28;20072;-63
2021/09/07 04:18:41;;;;;;;41.92;21.88;;;;;;;;;;5013128;28;20029;-64
2021/09/07 04:21:09;;;;;;;42.53;22.42;;;;;;;;;;5011816;28;20022;-64
2021/09/07 04:23:34;;;;;;;43.20;22.25;;;;;;;;;;5013720;28;20033;-64
2021/09/07 04:26:00;;;;;;;45.67;22.70;;;;;;;;;;5013168;28;20021;-63
2021/09/07 04:28:25;;;;;;;39.10;22.27;;;;;;;;;;5013350;28;20022;-63
2021/09/07 04:30:50;;;;;;;40.70;21.95;;;;;;;;;;5013020;28;20465;-64
2021/09/07 04:33:15;;;;;;;38.40;22.02;;;;;;;;;;5013523;28;20133;-63
2021/09/07 04:35:41;;;;;;;44.67;21.17;;;;;;;;;;5011881;28;20080;-63
2021/09/07 04:38:06;;;;;;;41.53;22.08;;;;;;;;;;5011963;28;20072;-63
2021/09/07 04:40:31;;;;;;;41.50;22.10;;;;;;;;;;5013004;28;20167;-63
2021/09/07 04:42:56;;;;;;;46.75;21.65;;;;;;;;;;5013225;28;20104;-63
2021/09/07 04:45:22;;;;;;;48.28;22.48;;;;;;;;;;5012769;28;20113;-63
2021/09/07 04:47:47;;;;;;;41.60;21.98;;;;;;;;;;5013108;28;20041;-63
2021/09/07 04:50:12;;;;;;;40.00;21.65;;;;;;;;;;5012695;28;20029;-63
2021/09/07 04:52:37;;;;;;;42.08;22.60;;;;;;;;;;5013392;28;20013;-63
2021/09/07 04:55:03;;;;;;;41.38;21.55;;;;;;;;;;5011537;28;20068;-63
2021/09/07 04:57:28;;;;;;;36.47;21.27;;;;;;;;;;5013000;28;20026;-63
2021/09/07 04:59:54;;;;;;;44.10;23.80;;;;;;;;;;5013103;28;20022;-63
2021/09/07 05:02:19;;;;;;;46.58;23.98;;;;;;;;;;5012550;28;20529;-63
2021/09/07 05:04:44;;;;;;;43.55;22.58;;;;;;;;;;5013066;28;20465;-63
2021/09/07 05:07:09;;;;;;;36.53;21.15;;;;;;;;;;4994647;28;20044;-63
2021/09/07 05:09:35;;;;;;;43.15;22.85;;;;;;;;;;5012585;28;20469;-62
2021/09/07 05:12:00;;;;;;;40.38;23.65;;;;;;;;;;5012772;28;20030;-64
2021/09/07 05:14:26;;;;;;;45.90;24.38;;;;;;;;;;5011563;28;20038;-62
2021/09/07 05:16:51;;;;;;;45.40;24.33;;;;;;;;;;5012497;28;20030;-62
2021/09/07 05:19:16;;;;;;;47.25;25.50;;;;;;;;;;5011524;28;20029;-68
2021/09/07 05:21:42;;;;;;;51.25;25.10;;;;;;;;;;5011163;28;20034;-63
2021/09/07 05:24:07;;;;;;;50.22;25.38;;;;;;;;;;5012786;28;20080;-63
2021/09/07 05:26:32;;;;;;;40.28;22.27;;;;;;;;;;5011225;28;20036;-62
2021/09/07 05:28:57;;;;;;;47.72;24.30;;;;;;;;;;5012936;28;20033;-62
2021/09/07 05:31:22;;;;;;;50.15;23.05;;;;;;;;;;5016094;28;20057;-62
2021/09/07 05:33:48;;;;;;;43.45;23.67;;;;;;;;;;5016277;28;20033;-64
2021/09/07 05:36:13;;;;;;;42.38;23.55;;;;;;;;;;5015989;28;20029;-62
2021/09/07 05:38:38;;;;;;;43.55;23.30;;;;;;;;;;5016360;28;20033;-62
2021/09/07 05:41:04;;;;;;;42.17;23.38;;;;;;;;;;5016205;28;20037;-63
2021/09/07 05:43:29;;;;;;;38.47;22.10;;;;;;;;;;5016325;28;20034;-62
2021/09/07 05:45:54;;;;;;;37.92;20.95;;;;;;;;;;5015923;28;20041;-63
2021/09/07 05:48:19;;;;;;;34.40;18.45;;;;;;;;;;5016283;28;20028;-63
2021/09/07 05:50:44;;;;;;;34.55;18.38;;;;;;;;;;5015938;28;20033;-63
2021/09/07 05:53:10;;;;;;;36.55;18.52;;;;;;;;;;5016253;28;20128;-62
2021/09/07 05:55:35;;;;;;;34.75;19.45;;;;;;;;;;5016034;28;20026;-63
2021/09/07 05:58:00;;;;;;;39.88;19.85;;;;;;;;;;5016256;28;20024;-62
2021/09/07 06:00:25;;;;;;;34.22;18.70;;;;;;;;;;5015840;28;20054;-62
2021/09/07 06:02:52;;;;;;;43.75;20.33;;;;;;;;;;5016084;28;20045;-63
2021/09/07 06:05:17;;;;;;;31.73;19.42;;;;;;;;;;5015641;28;20037;-64
2021/09/07 06:07:42;;;;;;;34.00;19.73;;;;;;;;;;5016074;28;20018;-62
2021/09/07 06:10:09;;;;;;;34.55;18.92;;;;;;;;;;5015447;28;20045;-63
2021/09/07 06:12:34;;;;;;;31.88;17.83;;;;;;;;;;5014524;28;20498;-62
2021/09/07 06:15:00;;;;;;;31.52;17.20;;;;;;;;;;5015627;28;20038;-62
2021/09/07 06:17:25;;;;;;;26.65;16.67;;;;;;;;;;5013961;28;20040;-62
2021/09/07 06:19:50;;;;;;;30.70;17.50;;;;;;;;;;5015866;28;20113;-62
2021/09/07 06:22:16;;;;;;;28.10;17.10;;;;;;;;;;5015223;28;20048;-62
2021/09/07 06:24:41;;;;;;;31.52;17.23;;;;;;;;;;5015535;28;20037;-63
2021/09/07 06:27:06;;;;;;;29.55;17.55;;;;;;;;;;5014901;28;20543;-63
2021/09/07 06:29:31;;;;;;;34.15;18.33;;;;;;;;;;5015389;28;20101;-63
2021/09/07 06:31:57;;;;;;;34.58;18.38;;;;;;;;;;5014881;28;20062;-63
2021/09/07 06:34:25;;;;;;;42.17;19.40;;;;;;;;;;5015079;28;20026;-63
2021/09/07 06:36:53;;;;;;;31.58;19.55;;;;;;;;;;5014855;28;20045;-63
2021/09/07 06:39:19;;;;;;;34.08;18.52;;;;;;;;;;5015302;28;20397;-63
2021/09/07 06:41:44;;;;;;;30.10;19.23;;;;;;;;;;5014667;28;20049;-63
2021/09/07 06:44:09;;;;;;;31.38;19.08;;;;;;;;;;5015022;28;20109;-63
2021/09/07 06:46:34;;;;;;;29.73;19.77;;;;;;;;;;5014490;28;20034;-63
2021/09/07 06:49:00;;;;;;;30.23;19.88;;;;;;;;;;5014875;28;20033;-62
2021/09/07 06:51:25;;;;;;;33.00;19.52;;;;;;;;;;5014528;28;20049;-63
2021/09/07 06:53:50;;;;;;;37.90;20.30;;;;;;;;;;5014930;28;20034;-63
2021/09/07 06:56:15;;;;;;;35.55;20.73;;;;;;;;;;5014448;28;20484;-63
2021/09/07 06:58:41;;;;;;;36.08;19.50;;;;;;;;;;5014870;28;20349;-63
2021/09/07 07:01:06;;;;;;;32.63;18.10;;;;;;;;;;5014144;28;20065;-63
2021/09/07 07:03:32;;;;;;;31.58;19.05;;;;;;;;;;5015000;28;20457;-63
2021/09/07 07:05:57;;;;;;;38.08;19.10;;;;;;;;;;5013973;28;20523;-63
2021/09/07 07:08:22;;;;;;;30.48;18.30;;;;;;;;;;5014490;28;20464;-63
2021/09/07 07:10:47;;;;;;;31.00;18.48;;;;;;;;;;5012978;28;20041;-63
2021/09/07 07:13:13;;;;;;;29.60;18.73;;;;;;;;;;5014449;28;20079;-63
2021/09/07 07:15:38;;;;;;;27.73;18.20;;;;;;;;;;5014078;28;20033;-63
2021/09/07 07:18:03;;;;;;;31.98;19.33;;;;;;;;;;5014486;28;20034;-63
2021/09/07 07:20:28;;;;;;;29.63;19.55;;;;;;;;;;5014346;28;20393;-63
2021/09/07 07:22:53;;;;;;;34.53;21.25;;;;;;;;;;5014581;28;20547;-63
2021/09/07 07:25:19;;;;;;;36.53;22.83;;;;;;;;;;5012896;28;20100;-63
2021/09/07 07:27:45;;;;;;;37.83;22.88;;;;;;;;;;5014370;28;20037;-63
2021/09/07 07:30:10;;;;;;;37.63;21.17;;;;;;;;;;5013752;28;20096;-63
2021/09/07 07:32:36;;;;;;;35.65;21.63;;;;;;;;;;5014356;28;20538;-63
2021/09/07 07:35:01;;;;;;;36.13;21.08;;;;;;;;;;5013742;28;20063;-63
2021/09/07 07:37:26;;;;;;;41.50;21.05;;;;;;;;;;5014703;28;20028;-63
2021/09/07 07:39:51;;;;;;;31.38;20.45;;;;;;;;;;5014211;28;20428;-63
2021/09/07 07:42:17;;;;;;;34.97;21.10;;;;;;;;;;5013633;28;20030;-63
2021/09/07 07:44:42;;;;;;;35.08;21.00;;;;;;;;;;5013891;28;20018;-63
2021/09/07 07:47:07;;;;;;;33.38;19.85;;;;;;;;;;5013390;28;20041;-63
2021/09/07 07:49:32;;;;;;;37.05;20.73;;;;;;;;;;5013947;28;20160;-63
2021/09/07 07:51:58;;;;;;;32.25;21.02;;;;;;;;;;5013011;28;20034;-63
2021/09/07 07:54:23;;;;;;;38.15;20.92;;;;;;;;;;5012451;28;20137;-63
2021/09/07 07:56:48;;;;;;;37.03;22.17;;;;;;;;;;5013325;28;20485;-63
2021/09/07 07:59:13;;;;;;;38.45;21.77;;;;;;;;;;5014113;28;20479;-64
2021/09/07 08:01:39;;;;;;;40.15;23.40;;;;;;;;;;5012122;28;20487;-63
2021/09/07 08:04:04;;;;;;;34.37;20.37;;;;;;;;;;5013633;28;20026;-63
2021/09/07 08:06:29;;;;;;;39.88;21.38;;;;;;;;;;5013286;28;20267;-63
2021/09/07 08:08:54;;;;;;;36.55;21.15;;;;;;;;;;5013595;28;20496;-63
2021/09/07 08:11:20;;;;;;;40.40;22.70;;;;;;;;;;5013407;28;20395;-64
2021/09/07 08:13:45;;;;;;;34.22;20.10;;;;;;;;;;5013646;28;20034;-64
2021/09/07 08:16:10;;;;;;;30.95;21.08;;;;;;;;;;5013171;28;20026;-64
2021/09/07 08:18:35;;;;;;;39.35;21.02;;;;;;;;;;5013478;28;20104;-64
2021/09/07 08:21:01;;;;;;;35.50;22.40;;;;;;;;;;5012930;28;20500;-64
2021/09/07 08:23:26;;;;;;;37.42;22.48;;;;;;;;;;5013465;28;20488;-63
2021/09/07 08:25:51;;;;;;;39.72;22.40;;;;;;;;;;5012952;28;20081;-64
2021/09/07 08:28:16;;;;;;;37.55;21.58;;;;;;;;;;5012167;28;20070;-64
2021/09/07 08:30:42;;;;;;;36.78;21.08;;;;;;;;;;5012729;28;20105;-64
2021/09/07 08:33:11;;;;;;;39.97;22.67;;;;;;;;;;5013051;28;20072;-64
2021/09/07 08:35:36;;;;;;;43.63;23.15;;;;;;;;;;5013040;28;20038;-64
2021/09/07 08:38:01;;;;;;;44.35;23.92;;;;;;;;;;5013302;28;20353;-64
2021/09/07 08:40:27;;;;;;;37.50;22.30;;;;;;;;;;5012537;28;20437;-64
2021/09/07 08:42:52;;;;;;;39.55;23.52;;;;;;;;;;5012338;28;20022;-64
2021/09/07 08:45:17;;;;;;;39.88;23.40;;;;;;;;;;5012781;28;20484;-64
2021/09/07 08:47:43;;;;;;;41.85;21.30;;;;;;;;;;5013736;28;20014;-66
2021/09/07 08:50:08;;;;;;;39.92;22.27;;;;;;;;;;5012802;28;20048;-64
2021/09/07 08:52:34;;;;;;;52.38;23.40;;;;;;;;;;5012978;28;20018;-64
2021/09/07 08:54:59;;;;;;;41.13;22.05;;;;;;;;;;5013243;28;20022;-64
2021/09/07 08:57:24;;;;;;;36.90;21.77;;;;;;;;;;5012794;28;20038;-64
2021/09/07 08:59:56;;;;;;;42.55;22.73;;;;;;;;;;5011870;28;20033;-64
2021/09/07 09:02:22;;;;;;;44.42;21.52;;;;;;;;;;5012606;28;20026;-64
2021/09/07 09:04:49;;;;;;;45.17;22.60;;;;;;;;;;5015209;28;20018;-64
2021/09/07 09:07:18;;;;;;;53.38;21.83;;;;;;;;;;5016619;28;20038;-64
2021/09/07 09:09:45;;;;;;;51.78;21.38;;;;;;;;;;5016656;28;20058;-64
2021/09/07 09:12:10;;;;;;;68.10;21.48;;;;;;;;;;5016174;28;20042;-64
2021/09/07 09:14:39;;;;;;;58.90;21.50;;;;;;;;;;5016453;28;20048;-64
2021/09/07 09:17:16;;;;;;;82.88;23.08;;;;;;;;;;5015743;28;20034;-64
2021/09/07 09:19:58;;;;;;;62.17;21.52;;;;;;;;;;5016999;28;20097;-65
2021/09/07 09:22:39;;;;;;;72.50;20.55;;;;;;;;;;5016333;28;20120;-64
2021/09/07 09:25:05;;;;;;;67.65;21.70;;;;;;;;;;5016167;28;20520;-65
2021/09/07 09:27:30;;;;;;;68.57;21.17;;;;;;;;;;5015629;28;20057;-64
2021/09/07 09:29:55;;;;;;;40.05;21.00;;;;;;;;;;5015437;28;20075;-64
2021/09/07 09:32:24;;;;;;;53.67;21.85;;;;;;;;;;5016027;28;20113;-64
2021/09/07 09:34:50;;;;;;;37.17;20.35;;;;;;;;;;5015518;28;20049;-65
2021/09/07 09:37:15;;;;;;;43.17;20.58;;;;;;;;;;5015899;28;20396;-64
2021/09/07 09:39:42;;;;;;;36.05;19.67;;;;;;;;;;5016216;28;20479;-64
2021/09/07 09:42:08;;;;;;;37.03;21.63;;;;;;;;;;5015928;28;20034;-64
2021/09/07 09:44:33;;;;;;;37.58;21.60;;;;;;;;;;5016251;28;20354;-66
2021/09/07 09:46:59;;;;;;;33.58;19.38;;;;;;;;;;5015882;28;20117;-64
2021/09/07 09:49:27;;;;;;;33.40;20.50;;;;;;;;;;5014891;28;20017;-63
2021/09/07 09:51:52;;;;;;;39.65;20.00;;;;;;;;;;5016129;28;20036;-64
2021/09/07 09:54:17;;;;;;;39.65;20.30;;;;;;;;;;5014991;28;20400;-64
2021/09/07 09:56:42;;;;;;;33.78;18.98;;;;;;;;;;5014383;28;20113;-64
2021/09/07 09:59:08;;;;;;;35.88;18.90;;;;;;;;;;5016068;28;20032;-64
2021/09/07 10:01:33;;;;;;;38.08;17.77;;;;;;;;;;5015425;28;20030;-64
2021/09/07 10:04:00;;;;;;;33.10;17.13;;;;;;;;;;5016290;28;20022;-65
2021/09/07 10:06:26;;;;;;;32.08;17.92;;;;;;;;;;4998140;28;20485;-65
2021/09/07 10:08:51;;;;;;;26.63;17.27;;;;;;;;;;5016012;28;20493;-64
2021/09/07 10:11:17;;;;;;;28.92;18.00;;;;;;;;;;5015593;28;20032;-63
2021/09/07 10:13:45;;;;;;;33.40;18.65;;;;;;;;;;5014553;28;20067;-64
2021/09/07 10:16:16;;;;;;;35.97;19.02;;;;;;;;;;5014699;28;20361;-64
2021/09/07 10:29:06;;;;;;;61.40;18.63;;;;;;;;;;5015409;28;20030;-64
2021/09/07 10:31:40;;;;;;;59.50;18.13;;;;;;;;;;5014966;28;20088;-64
2021/09/07 10:34:05;;;;;;;59.20;18.75;;;;;;;;;;5015362;28;20033;-64
2021/09/07 10:36:32;;;;;;;56.10;19.48;;;;;;;;;;5014702;28;20165;-64
2021/09/07 10:38:58;;;;;;;53.15;17.88;;;;;;;;;;5013700;28;20021;-64
2021/09/07 10:41:32;;;;;;;45.50;17.88;;;;;;;;;;5014763;28;20499;-64
2021/09/07 10:43:57;;;;;;;50.17;18.67;;;;;;;;;;5015007;28;20456;-64
2021/09/07 10:46:44;;;;;;;29.63;16.42;;;;;;;;;;5014654;28;20041;-64
2021/09/07 10:49:28;;;;;;;25.40;17.23;;;;;;;;;;5014988;28;20468;-64
2021/09/07 10:52:15;;;;;;;32.67;17.75;;;;;;;;;;5014441;28;20045;-64
2021/09/07 10:54:49;;;;;;;29.45;16.38;;;;;;;;;;5014811;28;20431;-64
2021/09/07 10:57:33;;;;;;;24.20;15.48;;;;;;;;;;5014680;28;20388;-64
2021/09/07 11:00:00;;;;;;;29.40;15.88;;;;;;;;;;5013531;28;20024;-65
2021/09/07 11:02:26;;;;;;;24.55;15.82;;;;;;;;;;5014453;28;20064;-64
2021/09/07 11:04:51;;;;;;;30.42;15.65;;;;;;;;;;5014471;28;20758;-64
2021/09/07 11:07:45;;;;;;;29.27;15.63;;;;;;;;;;5014315;28;20390;-64
2021/09/07 11:10:14;;;;;;;29.48;15.68;;;;;;;;;;4996737;28;20556;-64
2021/09/07 11:12:39;;;;;;;32.45;15.48;;;;;;;;;;5014376;28;20064;-64
2021/09/07 11:15:08;;;;;;;38.10;17.23;;;;;;;;;;5014231;28;20053;-64
2021/09/07 11:17:34;;;;;;;27.05;15.20;;;;;;;;;;5014688;28;20096;-64
2021/09/07 11:20:00;;;;;;;34.35;16.08;;;;;;;;;;5014553;28;20140;-64
2021/09/07 11:22:26;;;;;;;23.92;15.35;;;;;;;;;;5028889;28;20053;-64
2021/09/07 11:25:05;;;;;;;34.17;16.08;;;;;;;;;;5014227;28;20053;-65
2021/09/07 11:27:59;;;;;;;28.23;14.23;;;;;;;;;;5013018;28;20519;-65
2021/09/07 11:30:24;;;;;;;30.38;15.27;;;;;;;;;;5004679;28;20113;-64
2021/09/07 11:33:00;;;;;;;16.42;10.32;;;;;;;;;;5012703;28;20049;-64
2021/09/07 11:35:25;;;;;;;22.83;11.98;;;;;;;;;;5013546;28;20037;-64
2021/09/07 11:37:54;;;;;;;17.55;12.10;;;;;;;;;;5013892;28;20022;-65
2021/09/07 11:40:20;;;;;;;18.35;10.88;;;;;;;;;;5013540;28;20097;-64
2021/09/07 11:42:49;;;;;;;15.98;9.10;;;;;;;;;;5013837;28;20029;-64
2021/09/07 11:45:18;;;;;;;16.35;10.48;;;;;;;;;;5013456;28;20021;-64
2021/09/07 11:47:44;;;;;;;16.48;10.05;;;;;;;;;;5014073;28;20033;-64
2021/09/07 11:50:13;;;;;;;21.13;12.07;;;;;;;;;;5013372;28;20028;-64
2021/09/07 11:52:38;;;;;;;17.77;11.03;;;;;;;;;;5012396;28;20176;-64
2021/09/07 11:55:06;;;;;;;18.67;10.43;;;;;;;;;;5013547;28;20335;-64
2021/09/07 11:57:44;;;;;;;16.75;11.45;;;;;;;;;;5013640;28;20424;-64
2021/09/07 12:00:09;;;;;;;19.00;12.25;;;;;;;;;;5013299;28;20033;-64
2021/09/07 12:02:34;;;;;;;21.95;11.38;;;;;;;;;;5013664;28;20022;-64
2021/09/07 12:05:01;;;;;;;17.75;11.10;;;;;;;;;;5013535;28;20033;-64
2021/09/07 12:07:26;;;;;;;18.23;10.68;;;;;;;;;;5013624;28;20042;-64
2021/09/07 12:09:52;;;;;;;19.58;12.52;;;;;;;;;;5012361;28;20058;-64
2021/09/07 12:12:17;;;;;;;15.65;9.40;;;;;;;;;;5013067;28;20026;-64
2021/09/07 12:14:46;;;;;;;17.20;9.20;;;;;;;;;;5013507;28;20078;-64
2021/09/07 12:17:15;;;;;;;15.68;10.48;;;;;;;;;;5013177;28;20440;-64
2021/09/07 12:19:47;;;;;;;16.92;10.98;;;;;;;;;;5013383;28;20033;-65
2021/09/07 12:22:19;;;;;;;17.60;10.95;;;;;;;;;;5012805;28;20041;-64
2021/09/07 12:25:04;;;;;;;20.05;12.02;;;;;;;;;;5013276;28;20046;-64
2021/09/07 12:27:30;;;;;;;20.13;12.27;;;;;;;;;;5032531;28;20049;-64
2021/09/07 12:30:39;;;;;;;18.98;12.43;;;;;;;;;;5032781;28;20419;-64
2021/09/07 12:33:21;;;;;;;19.80;12.02;;;;;;;;;;4936100;29;20442;-64
2021/09/07 12:35:52;;;;;;;28.35;11.98;;;;;;;;;;4952078;28;20039;-64
2021/09/07 12:38:21;;;;;;;18.05;11.90;;;;;;;;;;4990848;28;20025;-64
2021/09/07 12:40:47;;;;;;;19.73;11.73;;;;;;;;;;5012347;28;20029;-64
2021/09/07 12:43:15;;;;;;;17.95;11.45;;;;;;;;;;5013020;28;20608;-64
2021/09/07 12:45:40;;;;;;;19.35;10.68;;;;;;;;;;5012593;28;20386;-64
2021/09/07 12:48:05;;;;;;;18.10;10.20;;;;;;;;;;5012760;28;20368;-64
2021/09/07 12:50:33;;;;;;;19.98;10.75;;;;;;;;;;5012334;28;20034;-64
2021/09/07 12:52:59;;;;;;;24.35;10.80;;;;;;;;;;5012461;28;20067;-64
2021/09/07 12:55:24;;;;;;;20.33;9.88;;;;;;;;;;5010815;28;20503;-64
2021/09/07 12:57:50;;;;;;;19.67;8.57;;;;;;;;;;5012910;28;20030;-64
2021/09/07 13:00:15;;;;;;;12.65;8.25;;;;;;;;;;5012504;28;20153;-64
2021/09/07 13:02:40;;;;;;;17.00;7.95;;;;;;;;;;5011451;28;20029;-64
2021/09/07 13:05:06;;;;;;;13.30;7.82;;;;;;;;;;5012377;28;20482;-64
2021/09/07 13:07:31;;;;;;;12.48;7.63;;;;;;;;;;5012744;28;20040;-64
2021/09/07 13:09:56;;;;;;;13.13;6.50;;;;;;;;;;5012380;28;20085;-64
2021/09/07 13:12:22;;;;;;;9.98;6.65;;;;;;;;;;5012495;28;20042;-65
2021/09/07 13:14:47;;;;;;;11.35;7.38;;;;;;;;;;5013289;28;20038;-65
2021/09/07 13:17:12;;;;;;;12.60;7.45;;;;;;;;;;5011767;28;20484;-65
2021/09/07 13:19:39;;;;;;;12.98;7.18;;;;;;;;;;5012292;28;20020;-65
2021/09/07 13:22:04;;;;;;;10.00;6.32;;;;;;;;;;5012185;28;20473;-65
2021/09/07 13:24:29;;;;;;;11.80;5.82;;;;;;;;;;5012603;28;20030;-65
2021/09/07 13:26:55;;;;;;;11.60;6.75;;;;;;;;;;5012350;28;20033;-65
2021/09/07 13:29:20;;;;;;;12.50;6.40;;;;;;;;;;5012614;28;20030;-65
2021/09/07 13:31:45;;;;;;;9.07;6.43;;;;;;;;;;5012161;28;20077;-65
2021/09/07 13:34:10;;;;;;;11.60;6.57;;;;;;;;;;5012409;28;20290;-65
2021/09/07 13:36:36;;;;;;;35.85;9.43;;;;;;;;;;5011993;28;20076;-65
2021/09/07 13:39:01;;;;;;;10.73;7.50;;;;;;;;;;5012314;28;20377;-65
2021/09/07 13:41:27;;;;;;;12.85;7.53;;;;;;;;;;5012004;28;20784;-65
2021/09/07 13:43:52;;;;;;;16.42;8.38;;;;;;;;;;5012213;28;20500;-65
2021/09/07 13:46:17;;;;;;;13.23;7.07;;;;;;;;;;5012104;28;20049;-65
2021/09/07 13:48:42;;;;;;;16.00;6.95;;;;;;;;;;5010896;28;20025;-64
2021/09/07 13:51:07;;;;;;;11.88;7.10;;;;;;;;;;5012442;28;20099;-65
2021/09/07 13:53:34;;;;;;;265.20;24.73;;;;;;;;;;5015762;28;20140;-65
2021/09/07 13:55:59;;;;;;;13.38;7.32;;;;;;;;;;5015499;28;20631;-65
2021/09/07 13:58:24;;;;;;;12.70;6.78;;;;;;;;;;5015843;28;20053;-64
2021/09/07 14:00:49;;;;;;;15.52;7.28;;;;;;;;;;5015423;28;20105;-65
2021/09/07 14:03:15;;;;;;;12.15;7.45;;;;;;;;;;5015913;28;20362;-65
2021/09/07 14:05:40;;;;;;;13.20;7.47;;;;;;;;;;5015196;28;20034;-65
2021/09/07 14:08:05;;;;;;;12.70;6.72;;;;;;;;;;5015413;28;20017;-65
2021/09/07 14:10:31;;;;;;;15.23;7.20;;;;;;;;;;5015133;28;20062;-65
2021/09/07 14:12:56;;;;;;;16.85;7.57;;;;;;;;;;5014238;28;20034;-65
2021/09/07 14:15:21;;;;;;;12.13;7.80;;;;;;;;;;5015028;28;20029;-65
2021/09/07 14:17:48;;;;;;;14.48;7.25;;;;;;;;;;5015697;28;20079;-65
2021/09/07 14:20:13;;;;;;;10.50;5.95;;;;;;;;;;5015076;28;20495;-65
2021/09/07 14:22:39;;;;;;;10.35;7.03;;;;;;;;;;5015469;28;20026;-65
2021/09/07 14:25:04;;;;;;;352.95;37.03;;;;;;;;;;5014017;28;20014;-65